Darstellungsparameter: Aktuell verwendete Einstellungen:
Skalierung der Graphiken ... ?
xyx+y,   Skalierungsfaktor:      Skalierung: Modus: x, Faktor: 1
Darstellungszeitraum ... ?
Vom - - bis: - -   Zeitraum: 04.04.2017 - 24.04.2017
Min/Max/Avg-Anzeige ... ?
Zeige MMA aktuell
Zeige MMA Monat
Zeige MMA alles
Zeige --A aktuell
Zeige --A Monat
Zeige --A alles
Keine MMA-Anzeige
MMA:
Average (ber die Originaldaten)
MMA-Basis: 04.04.2017 - 24.04.2017
Quicknavigation für Darstellung... ?
Tage:      1T, 2T, 3T, 5T -1T -2T -3T -5T +1T +2T +3T +5T
Wochen: 1W, 2W, 3W -1W -2W -3W +1W +2W +3W
Monate: 1M, 3M, 6M -1M -3M -6M +1M +3M +6M
Jahre:    1J, 3J, 5J, 10J -1J -3J -5J -10J +1J +3J +5J +10J
Nutze für die Darstellung ... ?
Originaldaten oder ...
Mittelwerte Minima Maxima auf...
Stundenbasis Tagesbasis Wochenbasis
Monatsbasis Jahresbasis      Datenbasis: Mittelwerte auf Stundenbasis
Darstellen als:
Statistik (Auto) Statistik J:M      Darstellung:
Zur Graphik,    zurück zur Übersicht aller Sensoren.
 
Tabellarische Datenbersicht: ?
 
Sensor: Nr:Datum:Temp:Abs-Feuchte:Windchill:Wind:
Aussen-T/F 1 04-04-2017 00:00:00 7.49167 C 6.71 g/m*3 7.49 C 0.26667 km/h
2 04-04-2017 01:00:00 6.00833 C 6.4 g/m*3 6.01 C 0.13333 km/h
3 04-04-2017 02:00:00 5.05833 C 6.14 g/m*3 5.06 C 0 km/h
4 04-04-2017 03:00:00 4.425 C 6.01 g/m*3 4.43 C 0 km/h
5 04-04-2017 04:00:00 3.83333 C 5.84 g/m*3 3.83 C 0 km/h
6 04-04-2017 05:00:00 3.38333 C 5.71 g/m*3 3.38 C 0 km/h
7 04-04-2017 06:00:00 2.89167 C 5.55 g/m*3 2.89 C 0 km/h
8 04-04-2017 07:00:00 2.84167 C 5.56 g/m*3 2.84 C 0.26667 km/h
9 04-04-2017 08:00:00 3.28333 C 5.76 g/m*3 3.28 C 0.13333 km/h
10 04-04-2017 09:00:00 4.3 C 6.19 g/m*3 4.3 C 0 km/h
11 04-04-2017 10:00:00 6.19167 C 7.02 g/m*3 6.19 C 0 km/h
12 04-04-2017 11:00:00 9.23333 C 7.67 g/m*3 9.23 C 1.06667 km/h
13 04-04-2017 12:00:00 12.225 C 7.52 g/m*3 12.23 C 5.75 km/h
14 04-04-2017 13:00:00 13.88333 C 7.14 g/m*3 13.88 C 6.84167 km/h
15 04-04-2017 14:00:00 15.2 C 6.74 g/m*3 15.2 C 7.79167 km/h
16 04-04-2017 15:00:00 16.04167 C 6.41 g/m*3 16.04 C 8.59167 km/h
17 04-04-2017 16:00:00 16.425 C 6.23 g/m*3 16.43 C 7.51667 km/h
18 04-04-2017 17:00:00 17.24167 C 5.9 g/m*3 17.24 C 11.41667 km/h
19 04-04-2017 18:00:00 17.08333 C 6.23 g/m*3 17.08 C 9.28333 km/h
20 04-04-2017 19:00:00 15.1 C 6.32 g/m*3 15.1 C 5.08333 km/h
21 04-04-2017 20:00:00 12.71667 C 6.33 g/m*3 12.72 C 4.15 km/h
22 04-04-2017 21:00:00 10.825 C 6.39 g/m*3 10.83 C 3.6 km/h
23 04-04-2017 22:00:00 9.19167 C 6.23 g/m*3 9.19 C 4.8 km/h
24 04-04-2017 23:00:00 8.46667 C 6.03 g/m*3 8.47 C 3.2 km/h
25 05-04-2017 00:00:00 7.86667 C 5.96 g/m*3 7.87 C 1.33333 km/h
Sensor: Nr:Datum:Temp:Abs-Feuchte:Windchill:Wind:
Aussen-T/F 26 05-04-2017 01:00:00 6.40833 C 5.77 g/m*3 6.41 C 0 km/h
27 05-04-2017 02:00:00 5.225 C 5.61 g/m*3 5.23 C 0 km/h
28 05-04-2017 03:00:00 4.475 C 5.55 g/m*3 4.47 C 0.4 km/h
29 05-04-2017 04:00:00 4.1 C 5.53 g/m*3 4.1 C 0.53333 km/h
30 05-04-2017 05:00:00 3.60833 C 5.46 g/m*3 3.61 C 0 km/h
31 05-04-2017 06:00:00 3.05833 C 5.34 g/m*3 3.06 C 0 km/h
32 05-04-2017 07:00:00 3.09167 C 5.45 g/m*3 3.09 C 0.26667 km/h
33 05-04-2017 08:00:00 3.78333 C 5.7 g/m*3 3.78 C 0.93333 km/h
34 05-04-2017 09:00:00 5.15 C 6.18 g/m*3 5.15 C 0.26667 km/h
35 05-04-2017 10:00:00 7.78333 C 6.76 g/m*3 7.78 C 2.675 km/h
36 05-04-2017 11:00:00 11.375 C 7.26 g/m*3 11.38 C 6.70833 km/h
37 05-04-2017 12:00:00 13.64167 C 7.34 g/m*3 13.64 C 9.95 km/h
38 05-04-2017 13:00:00 13.70833 C 7.72 g/m*3 13.71 C 14.76667 km/h
39 05-04-2017 14:00:00 12.60833 C 8 g/m*3 12.61 C 17.43333 km/h
40 05-04-2017 15:00:00 12.50833 C 7.87 g/m*3 12.51 C 16.5 km/h
41 05-04-2017 16:00:00 12.55 C 7.78 g/m*3 12.55 C 10.88333 km/h
42 05-04-2017 17:00:00 12.84167 C 7.73 g/m*3 12.84 C 11.41667 km/h
43 05-04-2017 18:00:00 12.575 C 7.57 g/m*3 12.58 C 12.63333 km/h
44 05-04-2017 19:00:00 12.2 C 7.39 g/m*3 12.2 C 9.81667 km/h
45 05-04-2017 20:00:00 11.21667 C 6.82 g/m*3 11.22 C 5.61667 km/h
46 05-04-2017 21:00:00 11.15 C 6.68 g/m*3 11.15 C 12.76667 km/h
47 05-04-2017 22:00:00 10.425 C 6.45 g/m*3 9 C 10.875 km/h
48 05-04-2017 23:00:00 9.58333 C 6.32 g/m*3 8.29 C 9.13333 km/h
49 06-04-2017 00:00:00 9.175 C 6.31 g/m*3 7.34 C 11.825 km/h
50 06-04-2017 01:00:00 8.61667 C 6.15 g/m*3 7.43 C 7.8 km/h
Sensor: Nr:Datum:Temp:Abs-Feuchte:Windchill:Wind:
Aussen-T/F 51 06-04-2017 02:00:00 7.38333 C 6.02 g/m*3 6.58 C 5.625 km/h
52 06-04-2017 03:00:00 6.34167 C 6.11 g/m*3 6.34 C 3.6 km/h
53 06-04-2017 04:00:00 5.80833 C 6.13 g/m*3 5.81 C 1.875 km/h
54 06-04-2017 05:00:00 6.23333 C 6.49 g/m*3 6.23 C 2.55 km/h
55 06-04-2017 06:00:00 6.375 C 6.48 g/m*3 5.48 C 5.475 km/h
56 06-04-2017 07:00:00 6.45 C 6.43 g/m*3 6.45 C 3.6 km/h
57 06-04-2017 08:00:00 6.61667 C 6.43 g/m*3 6.62 C 4.94167 km/h
58 06-04-2017 09:00:00 7.19167 C 6.51 g/m*3 5.45 C 9.13333 km/h
59 06-04-2017 10:00:00 7.975 C 6.32 g/m*3 6.27 C 9.68333 km/h
60 06-04-2017 11:00:00 8.95833 C 6.37 g/m*3 7.55 C 9.14167 km/h
61 06-04-2017 12:00:00 9.44167 C 6.26 g/m*3 7.66 C 11.83333 km/h
62 06-04-2017 13:00:00 10.075 C 6.25 g/m*3 8.3 C 12.76667 km/h
63 06-04-2017 14:00:00 10.91667 C 6.19 g/m*3 9.29 C 13.03333 km/h
64 06-04-2017 15:00:00 11.36667 C 6.06 g/m*3 11.37 C 12.76667 km/h
65 06-04-2017 16:00:00 11.80833 C 5.91 g/m*3 11.81 C 12.36667 km/h
66 06-04-2017 17:00:00 12.275 C 6.04 g/m*3 12.28 C 10.88333 km/h
67 06-04-2017 18:00:00 11.80833 C 6.08 g/m*3 11.81 C 11.96667 km/h
68 06-04-2017 19:00:00 11.05 C 6.44 g/m*3 11.05 C 10.88333 km/h
69 06-04-2017 20:00:00 8.94167 C 6.43 g/m*3 8.94 C 4.15833 km/h
70 06-04-2017 21:00:00 7.70833 C 6.44 g/m*3 7.71 C 2.26667 km/h
71 06-04-2017 22:00:00 7.21667 C 6.49 g/m*3 7.22 C 2.8 km/h
72 06-04-2017 23:00:00 7.93333 C 6.57 g/m*3 7.93 C 3.60833 km/h
73 07-04-2017 00:00:00 7.675 C 6.6 g/m*3 7.68 C 0.66667 km/h
74 07-04-2017 01:00:00 7.5 C 6.67 g/m*3 7.5 C 0.4 km/h
75 07-04-2017 06:00:00 3.5 C 5.64 g/m*3 3.5 C 1.44 km/h
Sensor: Nr:Datum:Temp:Abs-Feuchte:Windchill:Wind:
Aussen-T/F 76 07-04-2017 07:00:00 3.43636 C 5.67 g/m*3 3.44 C 2.48182 km/h
77 07-04-2017 11:00:00 10.65 C 7.17 g/m*3 10.32 C 5.625 km/h
78 07-04-2017 12:00:00 11.40833 C 7.15 g/m*3 11.41 C 7.66667 km/h
79 07-04-2017 13:00:00 12.50833 C 7.32 g/m*3 12.51 C 12.225 km/h
80 07-04-2017 14:00:00 13.50833 C 7.5 g/m*3 13.51 C 12.63333 km/h
81 07-04-2017 15:00:00 13.96667 C 7.46 g/m*3 13.97 C 13.96667 km/h
82 07-04-2017 16:00:00 14.6 C 7.53 g/m*3 14.6 C 14.1 km/h
83 07-04-2017 17:00:00 15.1 C 7.53 g/m*3 15.1 C 11.83333 km/h
84 07-04-2017 18:00:00 15.04167 C 7.54 g/m*3 15.04 C 12.89167 km/h
85 07-04-2017 19:00:00 13.49167 C 7.43 g/m*3 13.49 C 8.05833 km/h
86 07-04-2017 20:00:00 12.275 C 7.5 g/m*3 12.28 C 0.66667 km/h
87 07-04-2017 21:00:00 11.41667 C 7.54 g/m*3 11.42 C 0 km/h
88 07-04-2017 22:00:00 11.1 C 7.55 g/m*3 11.1 C 0 km/h
89 08-04-2017 09:00:00 9.5 C 7.64 g/m*3 9.08 C 5.34444 km/h
90 08-04-2017 10:00:00 11.34167 C 7.93 g/m*3 11.34 C 3.33333 km/h
91 08-04-2017 11:00:00 13.00833 C 7.98 g/m*3 13.01 C 3.2 km/h
92 08-04-2017 12:00:00 14.25833 C 8.07 g/m*3 14.26 C 4.55 km/h
93 08-04-2017 13:00:00 14.975 C 7.84 g/m*3 14.98 C 4.68333 km/h
94 08-04-2017 14:00:00 16.275 C 7.97 g/m*3 16.27 C 6.98333 km/h
95 08-04-2017 15:00:00 17.075 C 8.04 g/m*3 17.08 C 8.2 km/h
96 08-04-2017 16:00:00 18.45833 C 8.05 g/m*3 18.46 C 6.03333 km/h
97 08-04-2017 17:00:00 19.28333 C 7.73 g/m*3 19.28 C 7.53333 km/h
98 08-04-2017 18:00:00 19.31667 C 7.79 g/m*3 19.32 C 6.98333 km/h
99 08-04-2017 19:00:00 18.08333 C 7.85 g/m*3 18.08 C 4 km/h
100 08-04-2017 20:00:00 13.75833 C 7.77 g/m*3 13.76 C 4.66667 km/h
Sensor: Nr:Datum:Temp:Abs-Feuchte:Windchill:Wind:
Aussen-T/F 101 08-04-2017 21:00:00 12.30833 C 7.68 g/m*3 12.31 C 3.6 km/h
102 08-04-2017 22:00:00 11.08333 C 7.54 g/m*3 11.08 C 2.13333 km/h
103 08-04-2017 23:00:00 8.98333 C 7.24 g/m*3 8.98 C 0.26667 km/h
104 09-04-2017 00:00:00 7.775 C 7.03 g/m*3 7.78 C 0 km/h
105 09-04-2017 01:00:00 6.83333 C 6.8 g/m*3 6.83 C 0 km/h
106 09-04-2017 02:00:00 6.13333 C 6.64 g/m*3 6.13 C 0 km/h
107 09-04-2017 03:00:00 5.375 C 6.4 g/m*3 5.38 C 0 km/h
108 09-04-2017 04:00:00 4.99167 C 6.32 g/m*3 4.99 C 0 km/h
109 09-04-2017 05:00:00 4.28333 C 6.05 g/m*3 4.28 C 0 km/h
110 09-04-2017 06:00:00 3.79167 C 5.89 g/m*3 3.79 C 0 km/h
111 09-04-2017 07:00:00 3.55 C 5.82 g/m*3 3.55 C 0 km/h
112 09-04-2017 08:00:00 4.28333 C 6.16 g/m*3 4.28 C 0 km/h
113 09-04-2017 09:00:00 5.58333 C 6.78 g/m*3 5.58 C 0 km/h
114 09-04-2017 10:00:00 7.725 C 7.78 g/m*3 7.73 C 0 km/h
115 09-04-2017 11:00:00 11.425 C 8.89 g/m*3 11.43 C 0 km/h
116 09-04-2017 12:00:00 15.45833 C 9.13 g/m*3 15.46 C 2.81667 km/h
117 09-04-2017 13:00:00 18.18333 C 8.62 g/m*3 18.18 C 5.75833 km/h
118 09-04-2017 14:00:00 19.85 C 8.41 g/m*3 19.85 C 6.83333 km/h
119 09-04-2017 15:00:00 21.29167 C 8.21 g/m*3 21.29 C 7.10833 km/h
120 09-04-2017 16:00:00 22.93333 C 8.12 g/m*3 22.93 C 5.5 km/h
121 09-04-2017 17:00:00 24.40833 C 7.9 g/m*3 24.41 C 5.61667 km/h
122 09-04-2017 18:00:00 25.16667 C 8.09 g/m*3 25.17 C 3.46667 km/h
123 09-04-2017 19:00:00 22.275 C 8.86 g/m*3 22.28 C 2.53333 km/h
124 09-04-2017 20:00:00 17.69167 C 8.13 g/m*3 17.69 C 5.73333 km/h
125 09-04-2017 21:00:00 15.23333 C 8.37 g/m*3 15.23 C 2.93333 km/h
Sensor: Nr:Datum:Temp:Abs-Feuchte:Windchill:Wind:
Aussen-T/F 126 09-04-2017 22:00:00 13.19167 C 8.28 g/m*3 13.19 C 1.06667 km/h
127 09-04-2017 23:00:00 11.65833 C 7.91 g/m*3 11.66 C 0 km/h
128 10-04-2017 00:00:00 10.5 C 7.67 g/m*3 10.5 C 0.66667 km/h
129 10-04-2017 01:00:00 9.25833 C 7.41 g/m*3 9.26 C 0 km/h
130 10-04-2017 02:00:00 8.26667 C 7.23 g/m*3 8.27 C 0 km/h
131 10-04-2017 03:00:00 7.76667 C 7.19 g/m*3 7.77 C 0.66667 km/h
132 10-04-2017 04:00:00 7.15833 C 6.98 g/m*3 7.16 C 0.66667 km/h
133 10-04-2017 05:00:00 7.175 C 7.05 g/m*3 7.18 C 1.46667 km/h
134 10-04-2017 06:00:00 6.825 C 6.82 g/m*3 6.83 C 1.86667 km/h
135 10-04-2017 07:00:00 6.26667 C 6.76 g/m*3 6.27 C 0 km/h
136 10-04-2017 08:00:00 7.26667 C 7.23 g/m*3 7.27 C 0.26667 km/h
137 10-04-2017 09:00:00 9.81667 C 8.21 g/m*3 9.82 C 0.8 km/h
138 10-04-2017 10:00:00 12.95 C 8.64 g/m*3 12.95 C 8.05 km/h
139 10-04-2017 11:00:00 14.45833 C 8.93 g/m*3 14.46 C 15.16667 km/h
140 10-04-2017 12:00:00 14.75 C 8.78 g/m*3 14.75 C 15.83333 km/h
141 10-04-2017 13:00:00 14.49167 C 8.69 g/m*3 14.49 C 14.9 km/h
142 10-04-2017 14:00:00 14.3 C 8.2 g/m*3 14.3 C 14.9 km/h
143 10-04-2017 15:00:00 14.83333 C 8.04 g/m*3 14.83 C 15.3 km/h
144 10-04-2017 16:00:00 14.25 C 7.8 g/m*3 14.25 C 17.3 km/h
145 10-04-2017 17:00:00 13.84167 C 7.64 g/m*3 13.84 C 11.96667 km/h
146 10-04-2017 18:00:00 13.56667 C 7.6 g/m*3 13.57 C 7.65 km/h
147 10-04-2017 19:00:00 13.55833 C 7.24 g/m*3 13.56 C 5.89167 km/h
148 10-04-2017 20:00:00 12.15833 C 6.69 g/m*3 12.16 C 6.30833 km/h
149 10-04-2017 21:00:00 10.75 C 6.31 g/m*3 10.4 C 5.75833 km/h
150 10-04-2017 22:00:00 9.74167 C 6.15 g/m*3 9.74 C 4.15 km/h
Sensor: Nr:Datum:Temp:Abs-Feuchte:Windchill:Wind:
Aussen-T/F 151 10-04-2017 23:00:00 8.60833 C 6.15 g/m*3 8.61 C 3.60833 km/h
152 11-04-2017 00:00:00 8.475 C 6.38 g/m*3 7.87 C 5.49167 km/h
153 11-04-2017 01:00:00 8.74167 C 6.4 g/m*3 7.81 C 6.825 km/h
154 11-04-2017 02:00:00 8.275 C 6.33 g/m*3 7.26 C 6.84167 km/h
155 11-04-2017 03:00:00 7.64167 C 6.35 g/m*3 6.71 C 6.15833 km/h
156 11-04-2017 04:00:00 7.43333 C 6.37 g/m*3 7.43 C 4.80833 km/h
157 11-04-2017 05:00:00 7.25833 C 6.41 g/m*3 7.26 C 3.6 km/h
158 11-04-2017 06:00:00 7.025 C 6.42 g/m*3 7.03 C 3.46667 km/h
159 11-04-2017 07:00:00 6.7 C 6.43 g/m*3 5.98 C 5.09167 km/h
160 11-04-2017 08:00:00 7.125 C 6.58 g/m*3 7.13 C 3.46667 km/h
161 11-04-2017 09:00:00 7.94167 C 6.66 g/m*3 6.54 C 8.2 km/h
162 11-04-2017 10:00:00 8.4 C 6.35 g/m*3 7.17 C 7.8 km/h
163 11-04-2017 11:00:00 9.65 C 6.14 g/m*3 8.73 C 7.39167 km/h
164 11-04-2017 12:00:00 10.475 C 5.98 g/m*3 10.19 C 5.35 km/h
165 11-04-2017 13:00:00 11.20833 C 6 g/m*3 11.21 C 6.56667 km/h
166 11-04-2017 14:00:00 11.70833 C 5.75 g/m*3 11.71 C 6.025 km/h
167 11-04-2017 15:00:00 12.61667 C 5.72 g/m*3 12.62 C 4.675 km/h
168 11-04-2017 16:00:00 14.10833 C 5.86 g/m*3 14.11 C 5.61667 km/h
169 11-04-2017 17:00:00 14.175 C 5.84 g/m*3 14.18 C 5.61667 km/h
170 11-04-2017 18:00:00 15.18333 C 5.94 g/m*3 15.18 C 4.94167 km/h
171 11-04-2017 19:00:00 14.90833 C 6.44 g/m*3 14.91 C 2.13333 km/h
172 11-04-2017 20:00:00 10.70833 C 6.35 g/m*3 10.71 C 4 km/h
173 11-04-2017 21:00:00 8.56667 C 6.18 g/m*3 8.57 C 1.06667 km/h
174 11-04-2017 22:00:00 7.33333 C 6.05 g/m*3 7.33 C 0.66667 km/h
175 11-04-2017 23:00:00 6.46667 C 5.96 g/m*3 6.47 C 0.66667 km/h
Sensor: Nr:Datum:Temp:Abs-Feuchte:Windchill:Wind:
Aussen-T/F 176 12-04-2017 00:00:00 6.55 C 6.04 g/m*3 6.55 C 2.93333 km/h
177 12-04-2017 01:00:00 6.45833 C 6.06 g/m*3 6.46 C 3.60833 km/h
178 12-04-2017 02:00:00 5.725 C 5.87 g/m*3 5.73 C 3.33333 km/h
179 12-04-2017 03:00:00 5.41667 C 5.9 g/m*3 5.42 C 4.26667 km/h
180 12-04-2017 04:00:00 5.49167 C 5.9 g/m*3 5.49 C 3.86667 km/h
181 12-04-2017 05:00:00 5.025 C 5.78 g/m*3 5.03 C 4.55833 km/h
182 12-04-2017 06:00:00 4.64167 C 5.74 g/m*3 4.64 C 3.6 km/h
183 12-04-2017 07:00:00 4.875 C 5.89 g/m*3 4.88 C 1.2 km/h
184 12-04-2017 08:00:00 6.575 C 6.26 g/m*3 4.75 C 9 km/h
185 12-04-2017 09:00:00 8.65 C 6.52 g/m*3 6.79 C 11.3 km/h
186 12-04-2017 10:00:00 10.45 C 6.53 g/m*3 8.94 C 11.43333 km/h
187 12-04-2017 11:00:00 12.49167 C 6.76 g/m*3 12.49 C 10.09167 km/h
188 12-04-2017 12:00:00 14.69167 C 6.94 g/m*3 14.69 C 13.56667 km/h
189 12-04-2017 13:00:00 16.61667 C 7.28 g/m*3 16.62 C 14.63333 km/h
190 12-04-2017 14:00:00 17.75833 C 7.39 g/m*3 17.76 C 15.96667 km/h
191 12-04-2017 15:00:00 17.75 C 7.26 g/m*3 17.75 C 15.56667 km/h
192 12-04-2017 16:00:00 17.325 C 7.13 g/m*3 17.33 C 17.03333 km/h
193 12-04-2017 17:00:00 17.19167 C 7.11 g/m*3 17.19 C 13.16667 km/h
194 12-04-2017 18:00:00 17.5 C 7.43 g/m*3 17.5 C 9.14167 km/h
195 12-04-2017 19:00:00 17.06667 C 7.29 g/m*3 17.07 C 12.63333 km/h
196 12-04-2017 20:00:00 15.525 C 6.76 g/m*3 15.53 C 6.84167 km/h
197 12-04-2017 21:00:00 14.53333 C 7.49 g/m*3 14.53 C 13.83333 km/h
198 12-04-2017 22:00:00 12.35833 C 7.84 g/m*3 12.36 C 11.7 km/h
199 12-04-2017 23:00:00 11.53333 C 7.78 g/m*3 11.53 C 8.19167 km/h
200 13-04-2017 00:00:00 11.06667 C 7.71 g/m*3 11.07 C 4.825 km/h
Sensor: Nr:Datum:Temp:Abs-Feuchte:Windchill:Wind:
Aussen-T/F 201 13-04-2017 01:00:00 10.76667 C 7.25 g/m*3 10.77 C 2.53333 km/h
202 13-04-2017 02:00:00 10.525 C 7.24 g/m*3 10.53 C 2.26667 km/h
203 13-04-2017 03:00:00 10.31667 C 7.29 g/m*3 10.05 C 5.20833 km/h
204 13-04-2017 04:00:00 9.54167 C 7.32 g/m*3 9.54 C 4.675 km/h
205 13-04-2017 05:00:00 9.8 C 7.55 g/m*3 9.38 C 5.48333 km/h
206 13-04-2017 06:00:00 9.275 C 7.79 g/m*3 9.28 C 3.075 km/h
207 13-04-2017 07:00:00 8.95833 C 7.69 g/m*3 8.96 C 3.075 km/h
208 13-04-2017 08:00:00 9.64167 C 7.88 g/m*3 9.24 C 5.35 km/h
209 13-04-2017 09:00:00 10.60833 C 8.1 g/m*3 10.27 C 5.625 km/h
210 13-04-2017 10:00:00 11.575 C 7.35 g/m*3 11.58 C 11.00833 km/h
211 13-04-2017 11:00:00 12.70833 C 6.62 g/m*3 12.71 C 12.76667 km/h
212 13-04-2017 12:00:00 13.09167 C 6.55 g/m*3 13.09 C 12.76667 km/h
213 13-04-2017 13:00:00 13.08333 C 6.55 g/m*3 13.08 C 12.5 km/h
214 13-04-2017 14:00:00 14.05 C 6.32 g/m*3 14.05 C 10.475 km/h
215 13-04-2017 15:00:00 14.19167 C 6.55 g/m*3 14.19 C 10.9 km/h
216 13-04-2017 16:00:00 14.64167 C 6.73 g/m*3 14.64 C 10.225 km/h
217 13-04-2017 17:00:00 14.38333 C 6.68 g/m*3 14.38 C 8.46667 km/h
218 13-04-2017 18:00:00 14.16667 C 6.6 g/m*3 14.17 C 11.43333 km/h
219 13-04-2017 19:00:00 13.10833 C 6.45 g/m*3 13.11 C 6.575 km/h
220 13-04-2017 20:00:00 12.39167 C 6.34 g/m*3 12.39 C 3.86667 km/h
221 13-04-2017 21:00:00 11.08333 C 6.36 g/m*3 11.08 C 3.60833 km/h
222 13-04-2017 22:00:00 9.55833 C 6.43 g/m*3 9.56 C 0.8 km/h
223 13-04-2017 23:00:00 9.18333 C 6.56 g/m*3 9.18 C 0.4 km/h
224 14-04-2017 00:00:00 8.83333 C 6.2 g/m*3 8.83 C 3.49167 km/h
225 14-04-2017 01:00:00 9.25 C 6.11 g/m*3 8.83 C 5.225 km/h
Sensor: Nr:Datum:Temp:Abs-Feuchte:Windchill:Wind:
Aussen-T/F 226 14-04-2017 02:00:00 7.625 C 6.07 g/m*3 7.63 C 3.475 km/h
227 14-04-2017 03:00:00 6.35833 C 5.99 g/m*3 6.36 C 1.73333 km/h
228 14-04-2017 04:00:00 5.56667 C 5.93 g/m*3 5.57 C 0.53333 km/h
229 14-04-2017 05:00:00 4.85 C 5.81 g/m*3 4.85 C 0.53333 km/h
230 14-04-2017 06:00:00 3.73333 C 5.53 g/m*3 3.73 C 0.4 km/h
231 14-04-2017 07:00:00 3.14167 C 5.48 g/m*3 3.14 C 0 km/h
232 14-04-2017 08:00:00 3.675 C 5.75 g/m*3 3.68 C 0.13333 km/h
233 14-04-2017 09:00:00 5.10833 C 6.27 g/m*3 5.11 C 0 km/h
234 14-04-2017 10:00:00 7.41667 C 6.48 g/m*3 7.42 C 2 km/h
235 14-04-2017 11:00:00 10.00833 C 6.56 g/m*3 10.01 C 4.13333 km/h
236 14-04-2017 12:00:00 11.675 C 6.16 g/m*3 11.68 C 8.18333 km/h
237 14-04-2017 13:00:00 12.46667 C 5.93 g/m*3 12.47 C 8.16667 km/h
238 14-04-2017 14:00:00 13.79167 C 5.98 g/m*3 13.79 C 6.975 km/h
239 14-04-2017 15:00:00 15.25833 C 6.09 g/m*3 15.26 C 9.95833 km/h
240 14-04-2017 16:00:00 15.54167 C 6.17 g/m*3 15.54 C 11.43333 km/h
241 14-04-2017 17:00:00 15.73333 C 6.22 g/m*3 15.73 C 9.53333 km/h
242 14-04-2017 18:00:00 15.71667 C 6.19 g/m*3 15.72 C 8.725 km/h
243 14-04-2017 19:00:00 14.13333 C 6.29 g/m*3 14.13 C 9.00833 km/h
244 14-04-2017 20:00:00 12.54167 C 6.48 g/m*3 12.54 C 4.41667 km/h
245 14-04-2017 21:00:00 11.2 C 6.66 g/m*3 11.2 C 0.53333 km/h
246 14-04-2017 22:00:00 10.7 C 6.75 g/m*3 10.7 C 0.93333 km/h
247 14-04-2017 23:00:00 10.325 C 6.77 g/m*3 10.33 C 0.53333 km/h
248 15-04-2017 00:00:00 9.05833 C 6.59 g/m*3 9.06 C 2.66667 km/h
249 15-04-2017 01:00:00 7.68333 C 6.45 g/m*3 7.68 C 1.6 km/h
250 15-04-2017 02:00:00 6.78333 C 6.4 g/m*3 6.78 C 0.8 km/h
Sensor: Nr:Datum:Temp:Abs-Feuchte:Windchill:Wind:
Aussen-T/F 251 15-04-2017 03:00:00 6.70833 C 6.41 g/m*3 6.71 C 3.08333 km/h
252 15-04-2017 04:00:00 6.28333 C 6.4 g/m*3 6.28 C 2.40833 km/h
253 15-04-2017 05:00:00 6.41667 C 6.45 g/m*3 6.42 C 2.53333 km/h
254 15-04-2017 06:00:00 6.30833 C 6.44 g/m*3 6.31 C 0 km/h
255 15-04-2017 07:00:00 6.84167 C 6.68 g/m*3 6.84 C 0.66667 km/h
256 15-04-2017 08:00:00 8.45833 C 7.02 g/m*3 7.34 C 7.38333 km/h
257 15-04-2017 09:00:00 8.83333 C 7.59 g/m*3 8.4 C 5.08333 km/h
258 15-04-2017 10:00:00 8.7 C 7.7 g/m*3 7.62 C 7.375 km/h
259 15-04-2017 11:00:00 10.15833 C 7.93 g/m*3 8.49 C 12.09167 km/h
260 15-04-2017 12:00:00 11.4 C 8 g/m*3 11.4 C 9.81667 km/h
261 15-04-2017 13:00:00 12.175 C 8.48 g/m*3 12.18 C 11.83333 km/h
262 15-04-2017 14:00:00 12.54167 C 8.75 g/m*3 12.54 C 13.3 km/h
263 15-04-2017 15:00:00 10.34167 C 8.42 g/m*3 8.52 C 13.54167 km/h
264 15-04-2017 16:00:00 10.30833 C 8.75 g/m*3 9.92 C 5.65 km/h
265 15-04-2017 17:00:00 10.2 C 8.17 g/m*3 9.5 C 6.825 km/h
266 15-04-2017 18:00:00 10.85 C 7.89 g/m*3 9.59 C 10.35 km/h
267 15-04-2017 19:00:00 10.73333 C 7.14 g/m*3 9.47 C 10.225 km/h
268 15-04-2017 20:00:00 10.36667 C 7 g/m*3 9.4 C 8.19167 km/h
269 15-04-2017 21:00:00 9.84167 C 6.74 g/m*3 8.62 C 9.00833 km/h
270 15-04-2017 22:00:00 9.10833 C 6.55 g/m*3 8.13 C 7.23333 km/h
271 15-04-2017 23:00:00 8 C 6.3 g/m*3 8 C 3.875 km/h
272 16-04-2017 00:00:00 6.54167 C 6.09 g/m*3 6.54 C 1.33333 km/h
273 16-04-2017 01:00:00 5.9 C 6.13 g/m*3 5.9 C 1.73333 km/h
274 16-04-2017 02:00:00 4.95833 C 6 g/m*3 4.96 C 1.06667 km/h
275 16-04-2017 03:00:00 4.45 C 5.9 g/m*3 4.45 C 2.93333 km/h
Sensor: Nr:Datum:Temp:Abs-Feuchte:Windchill:Wind:
Aussen-T/F 276 16-04-2017 04:00:00 4.69167 C 5.88 g/m*3 3.5 C 5.60833 km/h
277 16-04-2017 05:00:00 4.46667 C 5.76 g/m*3 4.47 C 3.73333 km/h
278 16-04-2017 06:00:00 3.94167 C 5.68 g/m*3 3.94 C 3.75 km/h
279 16-04-2017 07:00:00 4.58333 C 5.94 g/m*3 4.58 C 3.46667 km/h
280 16-04-2017 08:00:00 6.05833 C 6.24 g/m*3 4.73 C 6.7 km/h
281 16-04-2017 09:00:00 8.18333 C 6.59 g/m*3 7.12 C 6.975 km/h
282 16-04-2017 10:00:00 9.39167 C 6.68 g/m*3 8.43 C 7.375 km/h
283 16-04-2017 11:00:00 9.5 C 6.88 g/m*3 9.08 C 5.36667 km/h
284 16-04-2017 12:00:00 9.76667 C 6.76 g/m*3 9.46 C 5.08333 km/h
285 16-04-2017 13:00:00 11.05 C 6.2 g/m*3 11.05 C 14.1 km/h
286 16-04-2017 14:00:00 10.68333 C 6.3 g/m*3 8.72 C 15.3 km/h
287 16-04-2017 15:00:00 9.24167 C 7.05 g/m*3 9.24 C 4.56667 km/h
288 16-04-2017 16:00:00 9.79167 C 6.64 g/m*3 8.99 C 6.98333 km/h
289 16-04-2017 17:00:00 10.75833 C 6.48 g/m*3 9.73 C 8.875 km/h
290 16-04-2017 18:00:00 10.18333 C 6.54 g/m*3 8.88 C 9.825 km/h
291 16-04-2017 19:00:00 9.91667 C 6.81 g/m*3 9.92 C 3.09167 km/h
292 16-04-2017 20:00:00 8.01667 C 6.69 g/m*3 8.02 C 0.26667 km/h
293 16-04-2017 21:00:00 6.40833 C 6.26 g/m*3 6.41 C 1.6 km/h
294 16-04-2017 22:00:00 6.44167 C 6.05 g/m*3 6.44 C 1.73333 km/h
295 16-04-2017 23:00:00 5.575 C 5.72 g/m*3 5.58 C 1.33333 km/h
296 17-04-2017 00:00:00 5.025 C 5.64 g/m*3 5.03 C 0.8 km/h
297 17-04-2017 01:00:00 5.25833 C 5.82 g/m*3 5.26 C 1.6 km/h
298 17-04-2017 02:00:00 5.71667 C 5.97 g/m*3 5.72 C 0.66667 km/h
299 17-04-2017 03:00:00 5.925 C 6.42 g/m*3 5.93 C 0 km/h
300 17-04-2017 04:00:00 5.50833 C 6.48 g/m*3 5.51 C 0.26667 km/h
Sensor: Nr:Datum:Temp:Abs-Feuchte:Windchill:Wind:
Aussen-T/F 301 17-04-2017 05:00:00 5.46667 C 6.58 g/m*3 5.47 C 0.66667 km/h
302 17-04-2017 06:00:00 5.69167 C 6.73 g/m*3 5.69 C 0.66667 km/h
303 17-04-2017 07:00:00 6.10833 C 6.94 g/m*3 4.94 C 6.175 km/h
304 17-04-2017 08:00:00 6.68333 C 7.21 g/m*3 5.7 C 5.88333 km/h
305 17-04-2017 09:00:00 6.96667 C 7.35 g/m*3 6.97 C 1.73333 km/h
306 17-04-2017 10:00:00 7 C 7.36 g/m*3 6.1 C 5.75 km/h
307 17-04-2017 11:00:00 6.325 C 6.87 g/m*3 4.12 C 10.61667 km/h
308 17-04-2017 12:00:00 6.14167 C 6.73 g/m*3 3.77 C 11.3 km/h
309 17-04-2017 13:00:00 6.78333 C 6.72 g/m*3 4.59 C 11.03333 km/h
310 17-04-2017 14:00:00 7.65 C 6.76 g/m*3 5.16 C 13.96667 km/h
311 17-04-2017 15:00:00 8.91667 C 6.8 g/m*3 7.35 C 9.95 km/h
312 17-04-2017 16:00:00 8.76667 C 6.92 g/m*3 7.7 C 7.375 km/h
313 17-04-2017 17:00:00 10.85833 C 7.49 g/m*3 10.52 C 5.76667 km/h
314 17-04-2017 18:00:00 10.11667 C 6.08 g/m*3 8.63 C 10.875 km/h
315 17-04-2017 19:00:00 8.21667 C 5.88 g/m*3 7.22 C 6.71667 km/h
316 17-04-2017 20:00:00 6.53333 C 6.13 g/m*3 6.53 C 0.8 km/h
317 17-04-2017 21:00:00 6.00833 C 5.65 g/m*3 6.01 C 3.20833 km/h
318 17-04-2017 22:00:00 6.15833 C 5.57 g/m*3 5.17 C 5.65 km/h
319 17-04-2017 23:00:00 5.91667 C 5.52 g/m*3 4.56 C 6.70833 km/h
320 18-04-2017 00:00:00 5.45833 C 5.64 g/m*3 5.46 C 4.28333 km/h
321 18-04-2017 01:00:00 5.05833 C 5.63 g/m*3 4.07 C 5.21667 km/h
322 18-04-2017 02:00:00 4.6 C 5.61 g/m*3 3.54 C 5.225 km/h
323 18-04-2017 03:00:00 4.41667 C 5.5 g/m*3 1.77 C 10.89167 km/h
324 18-04-2017 04:00:00 4.3 C 5.43 g/m*3 1.74 C 10.36667 km/h
325 18-04-2017 05:00:00 4.2 C 5.37 g/m*3 1.74 C 9.825 km/h
Sensor: Nr:Datum:Temp:Abs-Feuchte:Windchill:Wind:
Aussen-T/F 326 18-04-2017 06:00:00 4.16667 C 5.37 g/m*3 1.68 C 9.93333 km/h
327 18-04-2017 07:00:00 4.10833 C 5.38 g/m*3 2.51 C 6.55833 km/h
328 18-04-2017 08:00:00 4.475 C 5.54 g/m*3 1.84 C 10.9 km/h
329 18-04-2017 09:00:00 4.86667 C 5.61 g/m*3 2.54 C 9.83333 km/h
330 18-04-2017 10:00:00 5.86667 C 5.71 g/m*3 3.39 C 11.56667 km/h
331 18-04-2017 11:00:00 6.475 C 5.57 g/m*3 4.1 C 11.69167 km/h
332 18-04-2017 12:00:00 5.41667 C 5.59 g/m*3 2.45 C 13.8 km/h
333 18-04-2017 13:00:00 5.55833 C 5.81 g/m*3 2.78 C 12.89167 km/h
334 18-04-2017 14:00:00 7.29167 C 5.78 g/m*3 4.68 C 14.23333 km/h
335 18-04-2017 15:00:00 6.83333 C 5.97 g/m*3 4.22 C 13.55833 km/h
336 18-04-2017 16:00:00 7.50833 C 6.29 g/m*3 6.16 C 7.65 km/h
337 18-04-2017 17:00:00 9.68333 C 6.68 g/m*3 8.49 C 8.71667 km/h
338 18-04-2017 18:00:00 7.53333 C 6.31 g/m*3 7.53 C 3.74167 km/h
339 18-04-2017 19:00:00 7.21667 C 5.74 g/m*3 5.34 C 9.81667 km/h
340 18-04-2017 20:00:00 6.10833 C 5.57 g/m*3 4.63 C 7.24167 km/h
341 18-04-2017 21:00:00 4.625 C 5.58 g/m*3 4.63 C 0.4 km/h
342 18-04-2017 22:00:00 3.88333 C 5.53 g/m*3 3.88 C 0 km/h
343 18-04-2017 23:00:00 2.875 C 5.26 g/m*3 2.88 C 0 km/h
344 19-04-2017 00:00:00 2.125 C 5.1 g/m*3 2.13 C 0 km/h
345 19-04-2017 01:00:00 1.7 C 5 g/m*3 1.7 C 0.53333 km/h
346 19-04-2017 02:00:00 1.41667 C 4.96 g/m*3 1.42 C 0.13333 km/h
347 19-04-2017 03:00:00 1.45833 C 5.01 g/m*3 1.46 C 0 km/h
348 19-04-2017 04:00:00 1.81667 C 5.16 g/m*3 1.82 C 0 km/h
349 19-04-2017 05:00:00 1.875 C 5.18 g/m*3 1.88 C 0 km/h
350 19-04-2017 06:00:00 1.40833 C 4.96 g/m*3 1.41 C 0 km/h
Sensor: Nr:Datum:Temp:Abs-Feuchte:Windchill:Wind:
Aussen-T/F 351 19-04-2017 07:00:00 1.46667 C 5.01 g/m*3 1.47 C 0.26667 km/h
352 19-04-2017 08:00:00 1.85833 C 4.93 g/m*3 1.86 C 2.53333 km/h
353 19-04-2017 09:00:00 3.19167 C 4.77 g/m*3 0.21 C 11.29167 km/h
354 19-04-2017 10:00:00 4.53333 C 4.31 g/m*3 1.21 C 14.76667 km/h
355 19-04-2017 11:00:00 5.48333 C 4.05 g/m*3 2.4 C 14.63333 km/h
356 19-04-2017 12:00:00 6.09167 C 3.74 g/m*3 3.17 C 14.5 km/h
357 19-04-2017 13:00:00 6.64167 C 3.66 g/m*3 4.3 C 11.7 km/h
358 19-04-2017 14:00:00 6.91667 C 3.7 g/m*3 4.24 C 14.1 km/h
359 19-04-2017 15:00:00 7.18333 C 3.91 g/m*3 4.53 C 14.36667 km/h
360 19-04-2017 16:00:00 7.65 C 3.97 g/m*3 5.47 C 11.95833 km/h
361 19-04-2017 17:00:00 8.2 C 3.88 g/m*3 6.79 C 8.475 km/h
362 19-04-2017 18:00:00 8.14167 C 3.63 g/m*3 6.27 C 10.75 km/h
363 19-04-2017 19:00:00 7.30833 C 3.72 g/m*3 6.37 C 6.03333 km/h
364 19-04-2017 20:00:00 5.7 C 4.17 g/m*3 5.7 C 2.00833 km/h
365 19-04-2017 21:00:00 4.20833 C 4.43 g/m*3 4.21 C 0.53333 km/h
366 19-04-2017 22:00:00 3.03333 C 4.35 g/m*3 3.03 C 0.4 km/h
367 19-04-2017 23:00:00 2.26667 C 4.26 g/m*3 2.27 C 0.66667 km/h
368 20-04-2017 00:00:00 1.325 C 4.21 g/m*3 1.33 C 0.66667 km/h
369 20-04-2017 01:00:00 0.31667 C 4.16 g/m*3 0.32 C 0.13333 km/h
370 20-04-2017 02:00:00 -0.46667 C 4.08 g/m*3 -0.47 C 0 km/h
371 20-04-2017 03:00:00 -0.98333 C 3.99 g/m*3 -0.98 C 0 km/h
372 20-04-2017 04:00:00 -1.4 C 3.92 g/m*3 -1.4 C 0 km/h
373 20-04-2017 05:00:00 -1.66667 C 3.9 g/m*3 -1.67 C 0 km/h
374 20-04-2017 06:00:00 -1.84167 C 3.88 g/m*3 -1.84 C 0 km/h
375 20-04-2017 07:00:00 -1.81667 C 3.94 g/m*3 -1.82 C 0 km/h
Sensor: Nr:Datum:Temp:Abs-Feuchte:Windchill:Wind:
Aussen-T/F 376 20-04-2017 08:00:00 -1.33333 C 4.1 g/m*3 -1.33 C 0.13333 km/h
377 20-04-2017 09:00:00 -0.31667 C 4.4 g/m*3 -0.32 C 0 km/h
378 20-04-2017 10:00:00 2.29167 C 4.97 g/m*3 2.29 C 0.4 km/h
379 20-04-2017 11:00:00 5.64167 C 4.51 g/m*3 5.64 C 4.825 km/h
380 20-04-2017 12:00:00 7.48333 C 4.14 g/m*3 5.58 C 10.23333 km/h
381 20-04-2017 13:00:00 8.3 C 4.11 g/m*3 6.91 C 8.46667 km/h
382 20-04-2017 14:00:00 9.425 C 4.18 g/m*3 8.44 C 7.51667 km/h
383 20-04-2017 15:00:00 10.46667 C 4.14 g/m*3 9.34 C 9.15 km/h
384 20-04-2017 16:00:00 12.35 C 4.23 g/m*3 12.35 C 6.44167 km/h
385 20-04-2017 17:00:00 13.50833 C 4.2 g/m*3 13.51 C 7.65833 km/h
386 20-04-2017 18:00:00 13.40833 C 4.04 g/m*3 13.41 C 7.8 km/h
387 20-04-2017 19:00:00 12.08333 C 4.15 g/m*3 12.08 C 6.15833 km/h
388 20-04-2017 20:00:00 8.76667 C 4.99 g/m*3 8.77 C 1.33333 km/h
389 20-04-2017 21:00:00 6.175 C 4.91 g/m*3 6.18 C 3.06667 km/h
390 20-04-2017 22:00:00 5.59167 C 5.24 g/m*3 5.59 C 0.53333 km/h
391 20-04-2017 23:00:00 5.18333 C 5.23 g/m*3 5.18 C 0.13333 km/h
392 21-04-2017 00:00:00 4.325 C 5.05 g/m*3 4.33 C 0 km/h
393 21-04-2017 01:00:00 3.45833 C 4.91 g/m*3 3.46 C 0.93333 km/h
394 21-04-2017 02:00:00 2.79167 C 4.78 g/m*3 2.79 C 0.4 km/h
395 21-04-2017 03:00:00 1.68333 C 4.56 g/m*3 1.68 C 0.13333 km/h
396 21-04-2017 04:00:00 1.00833 C 4.44 g/m*3 1.01 C 0.13333 km/h
397 21-04-2017 05:00:00 0.31667 C 4.32 g/m*3 0.32 C 0.13333 km/h
398 21-04-2017 06:00:00 -0.125 C 4.27 g/m*3 -0.13 C 0.4 km/h
399 21-04-2017 07:00:00 0 C 4.36 g/m*3 0 C 0.53333 km/h
400 21-04-2017 08:00:00 1.05833 C 4.69 g/m*3 1.06 C 0.93333 km/h
Sensor: Nr:Datum:Temp:Abs-Feuchte:Windchill:Wind:
Aussen-T/F 401 21-04-2017 09:00:00 3.85 C 5.19 g/m*3 3.85 C 2.66667 km/h
402 21-04-2017 10:00:00 8.08333 C 5.34 g/m*3 8.08 C 2.93333 km/h
403 21-04-2017 11:00:00 10.55 C 5.16 g/m*3 10.55 C 3.46667 km/h
404 21-04-2017 12:00:00 11.80833 C 5.08 g/m*3 11.81 C 3.86667 km/h
405 21-04-2017 13:00:00 12.20833 C 5.5 g/m*3 12.21 C 4.4 km/h
406 21-04-2017 14:00:00 11.825 C 5.8 g/m*3 11.83 C 2 km/h
407 21-04-2017 15:00:00 12.58333 C 6.04 g/m*3 12.58 C 2.8 km/h
408 21-04-2017 16:00:00 14.2 C 6.67 g/m*3 14.2 C 4.53333 km/h
409 21-04-2017 17:00:00 14.775 C 7.17 g/m*3 14.78 C 7.24167 km/h
410 21-04-2017 18:00:00 14.975 C 7.39 g/m*3 14.98 C 5.5 km/h
411 21-04-2017 19:00:00 13.85833 C 7.95 g/m*3 13.86 C 0.53333 km/h
412 21-04-2017 20:00:00 12.11667 C 7.63 g/m*3 12.12 C 1.06667 km/h
413 21-04-2017 21:00:00 12.08333 C 7.65 g/m*3 12.08 C 2.4 km/h
414 21-04-2017 22:00:00 12.2 C 7.81 g/m*3 12.2 C 4.81667 km/h
415 21-04-2017 23:00:00 11.95833 C 7.86 g/m*3 11.96 C 8.73333 km/h
416 22-04-2017 00:00:00 11.66667 C 7.58 g/m*3 11.67 C 4.68333 km/h
417 22-04-2017 01:00:00 11 C 7.63 g/m*3 11 C 2.80833 km/h
418 22-04-2017 02:00:00 10.68333 C 7.55 g/m*3 10.68 C 3.33333 km/h
419 22-04-2017 03:00:00 10.24167 C 7.55 g/m*3 10.24 C 1.33333 km/h
420 22-04-2017 04:00:00 9.80833 C 7.6 g/m*3 9.81 C 0.4 km/h
421 22-04-2017 05:00:00 9.50833 C 7.63 g/m*3 9.51 C 0.53333 km/h
422 22-04-2017 06:00:00 9.45 C 7.63 g/m*3 9.45 C 1.46667 km/h
423 22-04-2017 07:00:00 9.875 C 7.71 g/m*3 9.88 C 2.8 km/h
424 22-04-2017 08:00:00 10.16667 C 7.8 g/m*3 9.06 C 8.7 km/h
425 22-04-2017 09:00:00 8.04167 C 7.09 g/m*3 5.31 C 16.5 km/h
Sensor: Nr:Datum:Temp:Abs-Feuchte:Windchill:Wind:
Aussen-T/F 426 22-04-2017 10:00:00 7.39167 C 6.72 g/m*3 5.25 C 11.425 km/h
427 22-04-2017 11:00:00 7.8 C 6.5 g/m*3 5.81 C 11.03333 km/h
428 22-04-2017 12:00:00 9.025 C 6.56 g/m*3 7.45 C 10.075 km/h
429 22-04-2017 13:00:00 8.94167 C 6.49 g/m*3 7.28 C 10.475 km/h
430 22-04-2017 14:00:00 9.525 C 6.47 g/m*3 7.74 C 11.96667 km/h
431 22-04-2017 15:00:00 10.60833 C 6.32 g/m*3 8.42 C 17.15833 km/h
432 22-04-2017 16:00:00 11 C 5.66 g/m*3 9.16 C 14.9 km/h
433 22-04-2017 17:00:00 10.68333 C 5.4 g/m*3 8.85 C 14.23333 km/h
434 22-04-2017 18:00:00 10.4 C 5.57 g/m*3 9.14 C 9.825 km/h
435 22-04-2017 19:00:00 9.975 C 5.75 g/m*3 9.05 C 7.65833 km/h
436 22-04-2017 20:00:00 9.35833 C 5.81 g/m*3 8.3 C 7.8 km/h
437 22-04-2017 21:00:00 8.96667 C 5.61 g/m*3 7.84 C 7.79167 km/h
438 22-04-2017 22:00:00 8.525 C 5.27 g/m*3 7.23 C 8.19167 km/h
439 22-04-2017 23:00:00 7.825 C 5.26 g/m*3 6.18 C 9.26667 km/h
440 23-04-2017 00:00:00 7.18333 C 5.29 g/m*3 5.65 C 8.19167 km/h
441 23-04-2017 01:00:00 6.14167 C 5.31 g/m*3 6.14 C 4.14167 km/h
442 23-04-2017 02:00:00 5.56667 C 5.35 g/m*3 5.57 C 1.6 km/h
443 23-04-2017 03:00:00 5.375 C 5.31 g/m*3 5.38 C 3.075 km/h
444 23-04-2017 04:00:00 5.04167 C 5.35 g/m*3 5.04 C 4.55 km/h
445 23-04-2017 05:00:00 4.18333 C 5.34 g/m*3 4.18 C 2.53333 km/h
446 23-04-2017 06:00:00 3.475 C 5.26 g/m*3 3.48 C 2 km/h
447 23-04-2017 07:00:00 3.41667 C 5.35 g/m*3 3.42 C 0.53333 km/h
448 23-04-2017 08:00:00 4.75833 C 5.7 g/m*3 4.76 C 2.53333 km/h
449 23-04-2017 09:00:00 6.3 C 5.83 g/m*3 4.45 C 8.875 km/h
450 23-04-2017 10:00:00 7.29167 C 5.71 g/m*3 5.15 C 11.3 km/h
Sensor: Nr:Datum:Temp:Abs-Feuchte:Windchill:Wind:
Aussen-T/F 451 23-04-2017 11:00:00 8.24167 C 5.35 g/m*3 6.02 C 13.03333 km/h
452 23-04-2017 12:00:00 9.1 C 5.15 g/m*3 7.69 C 9.275 km/h
453 23-04-2017 13:00:00 9.79167 C 5.12 g/m*3 8.26 C 10.75833 km/h
454 23-04-2017 14:00:00 10.1 C 5.11 g/m*3 8.76 C 9.93333 km/h
455 23-04-2017 15:00:00 10.6 C 5.1 g/m*3 9.5 C 9.14167 km/h
456 23-04-2017 16:00:00 11.28333 C 5.18 g/m*3 11.28 C 12.23333 km/h
457 23-04-2017 17:00:00 11.80833 C 5.12 g/m*3 11.81 C 10.21667 km/h
458 23-04-2017 18:00:00 10.475 C 5.2 g/m*3 9.37 C 9.00833 km/h
459 23-04-2017 19:00:00 10.01667 C 5.4 g/m*3 9.48 C 6.04167 km/h
460 23-04-2017 20:00:00 9.51667 C 5.46 g/m*3 9.52 C 4.15833 km/h
461 23-04-2017 21:00:00 7.08333 C 5.52 g/m*3 7.08 C 0.8 km/h
462 23-04-2017 22:00:00 5.425 C 5.38 g/m*3 5.43 C 0.66667 km/h
463 23-04-2017 23:00:00 4.15833 C 5.37 g/m*3 4.16 C 0 km/h
464 24-04-2017 00:00:00 4.05 C 5.39 g/m*3 4.05 C 0.26667 km/h
465 24-04-2017 01:00:00 2.70833 C 5.05 g/m*3 2.71 C 0.13333 km/h
466 24-04-2017 02:00:00 1.65 C 4.83 g/m*3 1.65 C 0 km/h
467 24-04-2017 03:00:00 1.05833 C 4.72 g/m*3 1.06 C 0.13333 km/h
468 24-04-2017 04:00:00 0.46667 C 4.59 g/m*3 0.47 C 0.13333 km/h
469 24-04-2017 05:00:00 -0.01667 C 4.48 g/m*3 -0.02 C 0 km/h
470 24-04-2017 06:00:00 -0.28333 C 4.42 g/m*3 -0.28 C 0.13333 km/h
471 24-04-2017 07:00:00 -0.20833 C 4.48 g/m*3 -0.21 C 0 km/h
472 24-04-2017 08:00:00 0.46667 C 4.7 g/m*3 0.47 C 0 km/h
473 24-04-2017 09:00:00 1.95833 C 5.25 g/m*3 1.96 C 0 km/h
474 24-04-2017 10:00:00 6.14167 C 6.13 g/m*3 6.14 C 3.33333 km/h
475 24-04-2017 11:00:00 10.19167 C 5.67 g/m*3 9.04 C 9.00833 km/h
Sensor: Nr:Datum:Temp:Abs-Feuchte:Windchill:Wind:
Aussen-T/F 476 24-04-2017 12:00:00 11.525 C 5.56 g/m*3 11.53 C 9.01667 km/h
477 24-04-2017 13:00:00 12.74167 C 5.52 g/m*3 12.74 C 9.96667 km/h
478 24-04-2017 14:00:00 14.225 C 5.54 g/m*3 14.23 C 9.80833 km/h
479 24-04-2017 15:00:00 16.24167 C 5.55 g/m*3 16.24 C 10.34167 km/h
480 24-04-2017 16:00:00 18.53333 C 5.5 g/m*3 18.53 C 13.56667 km/h
481 24-04-2017 17:00:00 18.825 C 5.28 g/m*3 18.83 C 10.075 km/h
482 24-04-2017 18:00:00 18.35 C 5.34 g/m*3 18.35 C 10.08333 km/h
483 24-04-2017 19:00:00 16.875 C 5.74 g/m*3 16.88 C 6.55833 km/h
484 24-04-2017 20:00:00 14.44167 C 6.35 g/m*3 14.44 C 4.28333 km/h
485 24-04-2017 21:00:00 11.04167 C 6.42 g/m*3 11.04 C 0.66667 km/h
486 24-04-2017 22:00:00 9.45833 C 6.42 g/m*3 9.46 C 0.26667 km/h
487 24-04-2017 23:00:00 7.74167 C 6.31 g/m*3 7.74 C 0 km/h

Maximal/Minimal-Werte vom 04.04.2017 - 24.04.2017

Sensor Min Max Avg
Temp
(Aussen-T/F)
-2 °C
20-04-2017  07:05:00
25.3 °C
09-04-2017  18:05:00
8.87 °C
Abs-Feuchte
(Aussen-T/F)
3.63 g/m*3
19-04-2017  18:00:00
9.13 g/m*3
09-04-2017  12:00:00
6.27 g/m*3
Windchill
(Aussen-T/F)
-1.84 C
20-04-2017  06:00:00
25.17 C
09-04-2017  18:00:00
8.46 C

Die Daten stammen von einer Davis Vantage Pro 2 Wetter-Station und werden unter Linux mit der Software wview2wettercgi und aufbereitet. Alle Angaben erfolgen ohne Gewähr für ihre Vollständigkeit oder Richtigkeit.
Kontakt: Rainer Krienke krienke@uni-koblenz.de . Meine Webseiten an der Uni Koblenz oder privat.
Version: $Revision: 0.78 $